Borkenberge Airport

EDLB · Nordrhein-Westfalen, Deutschland

METAR-Geschichte EDLB · Borkenberge Airport

Unten siehst du die METARs der letzten paar Tage. Wähle ein Jahr, um ältere METARs ab dem Jahr 2007 zu durchsuchen.

2. Dezember 2022

Uhrzeit Code Wetter Temp. Sichtweite Wolkendecke Wind METAR/SPECI
04:20
I
2 °C 5 km 600 ft 030° 030° 4 kt METAR EDLW 020320Z AUTO 03004KT 350V050 5000 // OVC006/// 02/01 Q1024
03:50
I
2 °C 5 km 600 ft 040° 040° 5 kt METAR EDLW 020250Z AUTO 04005KT 5000 // BKN006/// OVC010/// 02/01 Q1024
03:20
I
2 °C 5 km 600 ft 040° 040° 5 kt METAR EDLW 020220Z AUTO 04005KT 5000 // BKN006/// OVC011/// 02/01 Q1024
02:50
I
2 °C 6 km 700 ft 040° 040° 5 kt METAR EDLW 020150Z AUTO 04005KT 6000 // OVC007/// 02/01 Q1024
02:20
I
2 °C 6 km 700 ft 040° 040° 4 kt METAR EDLW 020120Z AUTO 04004KT 6000 // BKN007/// OVC012/// 02/01 Q1024
01:50
I
2 °C 6 km 800 ft 020° 020° 4 kt METAR EDLW 020050Z AUTO 02004KT 340V070 6000 // OVC008/// 02/01 Q1025
01:20
M
2 °C 9 km 1.000 ft 040° 040° 5 kt METAR EDLW 020020Z AUTO 04005KT 9000 // OVC010/// 02/00 Q1025
00:50
M
2 °C 9 km 1.200 ft 060° 060° 6 kt METAR EDLW 012350Z AUTO 06006KT 9000 // OVC012/// 02/00 Q1025
00:20
M
2 °C 10 km+ 1.400 ft 040° 040° 3 kt METAR EDLW 012320Z AUTO 04003KT 350V060 9999 // OVC014/// 02/00 Q1025

1. Dezember 2022

Uhrzeit Code Wetter Temp. Sichtweite Wolkendecke Wind METAR/SPECI
23:50
M
2 °C 9 km 1.200 ft 020° 020° 4 kt METAR EDLW 012250Z AUTO 02004KT 320V060 9000 // OVC012/// 02/00 Q1025
23:20
M
2 °C 10 km+ 1.100 ft 030° 030° 4 kt METAR EDLW 012220Z AUTO 03004KT 360V060 9999 // OVC011/// 02/00 Q1025
22:50
M
2 °C 10 km+ 1.100 ft 040° 040° 8 kt METAR EDLW 012150Z AUTO 04008KT 9999 // OVC011/// 02/00 Q1026
22:20
M
3 °C 9 km 1.200 ft 040° 040° 7 kt METAR EDLW 012120Z AUTO 04007KT 9000 // OVC012/// 03/00 Q1026
21:50
M
3 °C 10 km+ 1.200 ft 060° 060° 9 kt METAR EDLW 012050Z AUTO 06009KT 9999 // OVC012/// 03/00 Q1026
21:20
M
3 °C 10 km+ 1.300 ft 060° 060° 9 kt METAR EDLW 012020Z AUTO 06009KT 9999 // OVC013/// 03/00 Q1026
20:50
M
3 °C 10 km+ 1.200 ft 050° 050° 8 kt METAR EDLW 011950Z 05008KT 9999 OVC012 03/01 Q1026
20:20
M
3 °C 9 km 1.100 ft 030° 030° 5 kt METAR EDLW 011920Z 03005KT 340V050 9000 OVC011 03/01 Q1026
19:50
M
3 °C 10 km+ 1.100 ft 030° 030° 5 kt METAR EDLW 011850Z 03005KT 350V050 9999 BKN011 OVC015 03/01 Q1026
19:20
M
3 °C 10 km+ 1.200 ft 030° 030° 6 kt METAR EDLW 011820Z 03006KT 9999 OVC012 03/01 Q1026
18:50
M
3 °C 10 km+ 1.400 ft 030° 030° 6 kt METAR EDLW 011750Z 03006KT 360V060 9999 OVC014 03/01 Q1026
18:20
M
3 °C 9 km 1.400 ft 060° 060° 11 kt METAR EDLW 011720Z 06011KT 9000 OVC014 03/01 Q1026
17:50
M
4 °C 9 km 1.400 ft 060° 060° 9 kt METAR EDLW 011650Z 06009KT 9000 OVC014 04/01 Q1026
17:20
M
4 °C 10 km+ 1.300 ft 060° 060° 7 kt METAR EDLW 011620Z 06007KT 9999 OVC013 04/01 Q1026
16:50
M
4 °C 7 km 1.200 ft 060° 060° 9 kt METAR EDLW 011550Z 06009KT 7000 OVC012 04/01 Q1026
16:20
M
5 °C 7 km 1.200 ft 020° 020° 4 kt METAR EDLW 011520Z 02004KT 7000 OVC012 05/02 Q1026
15:50
M
5 °C 7 km 1.700 ft 010° 010° 4 kt METAR EDLW 011450Z 01004KT 320V050 7000 SCT012 OVC017 05/03 Q1026
15:20
V
5 °C 9 km 3.500 ft 020° 020° 5 kt METAR EDLW 011420Z 02005KT 350V060 9000 SCT014 SCT016 OVC035 05/02 Q1025
14:50
M
5 °C 8 km 1.300 ft 020° 020° 4 kt METAR EDLW 011350Z 02004KT 340V050 8000 BKN013 OVC021 05/03 Q1025
14:20
M
5 °C 9 km 1.300 ft 040° 040° 5 kt METAR EDLW 011320Z 04005KT 360V060 9000 OVC013 05/03 Q1026
13:50
M
5 °C 9 km 1.200 ft 040° 040° 5 kt METAR EDLW 011250Z 04005KT 360V070 9000 BKN012 OVC021 05/02 Q1026
13:20
M
5 °C 7 km 1.100 ft 040° 040° 6 kt METAR EDLW 011220Z 04006KT 7000 BKN011 05/03 Q1026
12:50
M
5 °C 7 km 1.200 ft 040° 040° 7 kt METAR EDLW 011150Z 04007KT 010V070 7000 FEW009 OVC012 05/03 Q1026
12:20
M
5 °C 6 km 1.100 ft 030° 030° 6 kt METAR EDLW 011120Z 03006KT 340V060 6000 FEW009 OVC011 05/03 Q1026
11:50
I
5 °C 6 km 800 ft 030° 030° 6 kt METAR EDLW 011050Z 03006KT 360V060 6000 BKN008 OVC015 05/03 Q1026
11:20
I
5 °C 6 km 700 ft 030° 030° 6 kt METAR EDLW 011020Z 03006KT 360V060 6000 BKN007 BKN011 OVC017 05/04 Q1027
10:50
I
5 °C 7 km 500 ft 030° 030° 5 kt METAR EDLW 010950Z 03005KT 360V060 7000 OVC005 05/04 Q1027
10:20
M
4 °C 8 km 1.000 ft 030° 030° 4 kt METAR EDLW 010920Z 03004KT 350V070 8000 -DZ SCT004 BKN010 OVC017 04/04 Q1027
10:00
I
4 °C 6 km 700 ft 030° 030° 6 kt METAR EDLW 010900Z 03006KT 6000 FEW005 OVC007 04/04 Q1027
09:50
L
4 °C 6 km 200 ft 030° 030° 6 kt METAR EDLW 010850Z 03006KT 6000 BKN002 04/04 Q1027
09:20
L
4 °C 2,8 km 100 ft 020° 020° 5 kt METAR EDLW 010820Z 02005KT 350V050 2800 BR BKN001 04/04 Q1026
08:50
L
4 °C 3,4 km 100 ft 030° 030° 6 kt METAR EDLW 010750Z 03006KT 360V060 3400 BR OVC001 04/04 Q1026
08:20
L
4 °C 2,3 km 100 ft 360° 360° 5 kt METAR EDLW 010720Z 36005KT 320V030 2300 BR BKN001 04/04 Q1026
07:50
L
5 °C 3,8 km 100 ft 010° 010° 5 kt METAR EDLW 010650Z 01005KT 340V050 3800 BR OVC001 05/04 Q1026
07:20
L
5 °C 4 km 100 ft 020° 020° 6 kt METAR EDLW 010620Z 02006KT 340V050 4000 BR OVC001 05/04 Q1026
06:50
L
5 °C 4 km 100 ft 020° 020° 3 kt METAR EDLW 010550Z 02003KT 350V050 4000 BKN001 05/04 Q1026
06:20
L
5 °C 7 km 400 ft 020° 020° 3 kt METAR EDLW 010520Z 02003KT 330V050 7000 OVC004 05/04 Q1026
05:50
L
5 °C 6 km 200 ft 020° 020° 4 kt METAR EDLW 010450Z 02004KT 340V050 6000 OVC002 05/05 Q1026
05:20
L
5 °C 4 km 100 ft 010° 010° 4 kt METAR EDLW 010420Z 01004KT 320V040 4000 BR BKN001 05/05 Q1026
04:50
L
5 °C 3,6 km 100 ft 010° 010° 4 kt METAR EDLW 010350Z AUTO 01004KT 320V050 3600 // BKN001/// 05/05 Q1026
04:20
L
5 °C 5 km 200 ft 020° 020° 5 kt METAR EDLW 010320Z AUTO 02005KT 350V050 5000 // BKN002/// 05/05 Q1026
03:50
L
5 °C 5 km 200 ft 010° 010° 5 kt METAR EDLW 010250Z AUTO 01005KT 340V050 5000 // OVC002/// 05/05 Q1025
03:20
L
5 °C 5 km 300 ft 010° 010° 5 kt METAR EDLW 010220Z AUTO 01005KT 320V040 5000 // BKN003/// 05/05 Q1026
02:50
L
5 °C 5 km 200 ft 020° 020° 4 kt METAR EDLW 010150Z AUTO 02004KT 330V040 5000 // BKN002/// 05/05 Q1026
02:20
L
5 °C 4 km 100 ft 010° 010° 3 kt METAR EDLW 010120Z AUTO 01003KT 320V060 4000 // BKN001/// 05/05 Q1025
01:50
L
5 °C 2,4 km 100 ft 010° 010° 4 kt METAR EDLW 010050Z AUTO 01004KT 330V030 2400 // BKN001/// 05/05 Q1025
01:20
L
5 °C 2,8 km 100 ft 010° 010° 4 kt METAR EDLW 010020Z AUTO 01004KT 330V040 2800 // BKN001/// 05/05 Q1025
00:50
L
5 °C 3,5 km 100 ft 020° 020° 3 kt METAR EDLW 302350Z AUTO 02003KT 3500 // OVC001/// 05/05 Q1025
00:20
L
5 °C 900 m 100 ft 020° 020° 3 kt METAR EDLW 302320Z AUTO 02003KT 340V060 1300 0900 R24/1600U // OVC001/// 05/05 Q1025

30. November 2022

Uhrzeit Code Wetter Temp. Sichtweite Wolkendecke Wind METAR/SPECI
23:50
L
5 °C 750 m 100 ft 010° 010° 3 kt METAR EDLW 302250Z AUTO 01003KT 330V060 0800 0750 R24/1100U // OVC001/// 05/05 Q1025
23:20
L
5 °C 700 m 100 ft 010° 010° 3 kt METAR EDLW 302220Z AUTO 01003KT 320V040 0800 0700 R24/0900U // OVC001/// 05/05 Q1025
22:50
L
5 °C 750 m 100 ft 010° 010° 3 kt METAR EDLW 302150Z AUTO 01003KT 350V050 0900 0750 R24/1100D // OVC001/// 05/05 Q1025
22:20
L
5 °C 1,8 km 100 ft 360° 360° 4 kt METAR EDLW 302120Z AUTO 36004KT 330V030 1800 // OVC001/// 05/05 Q1025
21:50
L
5 °C 2,4 km 100 ft 360° 360° 4 kt METAR EDLW 302050Z AUTO 36004KT 300V040 2400 // OVC001/// 05/05 Q1025
21:20
L
5 °C 900 m 100 ft 360° 360° 3 kt METAR EDLW 302020Z AUTO 36003KT 290V040 1000 0900 R24/1100N // OVC001/// 05/05 Q1025
20:50
L
5 °C 1,6 km 100 ft 020° 020° 3 kt METAR EDLW 301950Z 02003KT 340V040 1600 BR OVC001 05/05 Q1025
20:20
L
5 °C 2 km 100 ft 010° 010° 3 kt METAR EDLW 301920Z 01003KT 310V060 2000 BR BKN001 05/05 Q1025
19:50
L
5 °C 2,2 km 100 ft 360° 360° 4 kt METAR EDLW 301850Z 36004KT 320V040 2200 BR BKN001 05/05 Q1025
19:20
L
5 °C 2,6 km 100 ft 360° 360° 4 kt METAR EDLW 301820Z 36004KT 310V050 2600 BR BKN001 05/05 Q1025
18:50
L
5 °C 2,5 km 100 ft 010° 010° 3 kt METAR EDLW 301750Z 01003KT 310V060 2500 BR BKN001 05/05 Q1024
18:20
L
5 °C 4,1 km 100 ft 360° 360° 3 kt METAR EDLW 301720Z 36003KT 310V060 4100 BR BKN001 05/05 Q1024
17:50
L
5 °C 3,2 km 100 ft 350° 350° 4 kt METAR EDLW 301650Z 35004KT 300V030 3200 BR BKN001 05/05 Q1024
17:20
L
5 °C 3,5 km 100 ft 360° 360° 3 kt METAR EDLW 301620Z 36003KT 320V040 3500 BR BKN001 05/05 Q1024
16:50
L
5 °C 3,3 km 100 ft 360° 360° 4 kt METAR EDLW 301550Z 36004KT 310V040 3300 BR BKN001 05/05 Q1024
16:20
L
6 °C 3,7 km 100 ft 010° 010° 3 kt METAR EDLW 301520Z 01003KT 330V040 3700 BR BKN001 06/05 Q1024
15:50
L
6 °C 3,3 km 100 ft 350° 350° 4 kt METAR EDLW 301450Z 35004KT 300V040 3300 BR BKN001 06/05 Q1023
15:20
L
6 °C 3 km 100 ft 350° 350° 3 kt METAR EDLW 301420Z 35003KT 320V050 3000 BR BKN001 06/05 Q1023
14:50
L
6 °C 3,4 km 100 ft 350° 350° 3 kt METAR EDLW 301350Z 35003KT 310V030 3400 BR BKN001 06/05 Q1023
14:20
L
6 °C 3 km 100 ft Var Var 2 kt METAR EDLW 301320Z VRB02KT 3000 BR BKN001 BKN006 06/05 Q1023
13:50
L
6 °C 3,4 km 300 ft Var Var 2 kt METAR EDLW 301250Z VRB02KT 3400 BR OVC003 06/05 Q1023
13:20
L
6 °C 5 km 300 ft 340° 340° 3 kt METAR EDLW 301220Z 34003KT 290V030 5000 BR OVC003 06/05 Q1023
12:50
L
6 °C 3,9 km 200 ft Var Var 2 kt METAR EDLW 301150Z VRB02KT 3900 BR OVC002 06/05 Q1023
12:20
L
6 °C 3,4 km 200 ft 320° 320° 3 kt METAR EDLW 301120Z 32003KT 270V010 3400 BR BKN002 BKN007 06/05 Q1023
11:50
L
6 °C 2 km 400 ft 340° 340° 3 kt METAR EDLW 301050Z 34003KT 290V040 2000 BR OVC004 06/05 Q1023
11:20
L
6 °C 3,2 km 400 ft Var Var 2 kt METAR EDLW 301020Z VRB02KT 3200 BR OVC004 06/05 Q1023
10:50
L
6 °C 4,2 km 400 ft 320° 320° 3 kt METAR EDLW 300950Z 32003KT 260V020 4200 BR OVC004 06/05 Q1023
10:20
L
6 °C 4 km 400 ft 320° 320° 3 kt METAR EDLW 300920Z 32003KT 280V360 4000 BR OVC004 06/05 Q1023
09:50
L
6 °C 4 km 400 ft Var Var 2 kt METAR EDLW 300850Z VRB02KT 4000 BR OVC004 06/05 Q1023
09:20
I
6 °C 4 km 500 ft Var Var 1 kt METAR EDLW 300820Z VRB01KT 4000 BR OVC005 06/05 Q1023
08:50
I
6 °C 5 km 500 ft Var Var 2 kt METAR EDLW 300750Z VRB02KT 5000 BR OVC005 06/05 Q1022
08:20
I
6 °C 5 km 700 ft Var Var 2 kt METAR EDLW 300720Z VRB02KT 5000 BR OVC007 06/05 Q1022
07:50
M
5 °C 6 km 2.000 ft Var 000° 0 kt METAR EDLW 300650Z 00000KT 6000 SCT008 OVC020 05/05 Q1022
07:20
M
5 °C 6 km 1.700 ft 240° 240° 3 kt METAR EDLW 300620Z 24003KT 6000 OVC017 05/05 Q1022
06:50
M
5 °C 6 km 1.500 ft Var 000° 0 kt METAR EDLW 300550Z 00000KT 6000 BKN015 OVC017 05/05 Q1022
06:20
I
5 °C 8 km 900 ft Var Var 1 kt METAR EDLW 300520Z VRB01KT 8000 BKN009 OVC012 05/05 Q1022
05:50
I
5 °C 7 km 500 ft Var Var 2 kt METAR EDLW 300450Z VRB02KT 7000 OVC005 05/05 Q1022
05:20
L
5 °C 5 km 400 ft Var Var 2 kt METAR EDLW 300420Z VRB02KT 5000 BR BKN004 05/05 Q1022
04:50
L
5 °C 4,1 km 100 ft 350° 350° 3 kt METAR EDLW 300350Z AUTO 35003KT 310V030 4100 // BKN001/// 05/05 Q1021
04:20
L
6 °C 1,1 km 100 ft 340° 340° 4 kt METAR EDLW 300320Z AUTO 34004KT 300V020 1200 1100 R24/1500U // OVC001/// 06/06 Q1021
03:50
L
6 °C 1,1 km 100 ft 340° 340° 4 kt METAR EDLW 300250Z AUTO 34004KT 310V020 1600 1100 R24/1400U // OVC001/// 06/06 Q1021
03:20
L
7 °C 1,2 km 100 ft 350° 350° 4 kt SPECI EDLW 300220Z AUTO 35004KT 290V020 2000 1200 R24/P2000N // BKN001/// 07/06 Q1021
02:50
L
7 °C 2,5 km 200 ft 270° 270° 3 kt METAR EDLW 300150Z AUTO 27003KT 220V330 2500 // BKN002/// 07/07 Q1021
02:20
L
7 °C 2,3 km 100 ft 250° 250° 4 kt METAR EDLW 300120Z AUTO 25004KT 2300 // BKN001/// 07/07 Q1021
01:50
L
7 °C 2,6 km 200 ft 250° 250° 4 kt METAR EDLW 300050Z AUTO 25004KT 2600 // BKN002/// 07/07 Q1021
01:20
L
7 °C 4,5 km 400 ft 250° 250° 3 kt METAR EDLW 300020Z AUTO 25003KT 230V290 4500 // OVC004/// 07/07 Q1021
00:50
L
7 °C 4,5 km 400 ft 250° 250° 2 kt METAR EDLW 292350Z AUTO 25002KT 4500 // OVC004/// 07/07 Q1021
00:20
I
7 °C 4,5 km 1.600 ft 240° 240° 4 kt METAR EDLW 292320Z AUTO 24004KT 4500 // FEW004/// BKN016/// OVC020/// 07/07 Q1021

29. November 2022

Uhrzeit Code Wetter Temp. Sichtweite Wolkendecke Wind METAR/SPECI
23:50
I
7 °C 3,9 km 1.400 ft 250° 250° 3 kt METAR EDLW 292250Z AUTO 25003KT 3900 // SCT003/// OVC014/// 07/07 Q1021
23:20
L
7 °C 4 km 300 ft 270° 270° 3 kt METAR EDLW 292220Z AUTO 27003KT 240V350 4000 // BKN003/// BKN015/// 07/07 Q1021
22:50
L
7 °C 4,1 km 200 ft 270° 270° 3 kt METAR EDLW 292150Z 27003KT 230V320 4100 BR OVC002 07/07 Q1021
22:20
L
7 °C 2,5 km 300 ft Var Var 2 kt METAR EDLW 292120Z VRB02KT 2500 OVC003 07/07 Q1021
21:50
I
7 °C 3,8 km 500 ft 260° 260° 3 kt METAR EDLW 292050Z 26003KT 230V300 3800 BR OVC005 07/06 Q1021
21:20
I
7 °C 7 km 700 ft 250° 250° 4 kt METAR EDLW 292020Z 25004KT 7000 OVC007 07/06 Q1020
20:50
I
7 °C 6 km 700 ft 260° 260° 3 kt METAR EDLW 291950Z 26003KT 220V290 6000 OVC007 07/06 Q1020
20:20
M
8 °C 8 km 1.400 ft 250° 250° 3 kt METAR EDLW 291920Z 25003KT 220V280 8000 FEW008 BKN014 OVC024 08/06 Q1020
19:50
M
8 °C 7 km 1.500 ft 250° 250° 3 kt METAR EDLW 291850Z 25003KT 220V300 7000 OVC015 08/06 Q1020
19:20
V
8 °C 8 km 3.800 ft 260° 260° 3 kt METAR EDLW 291820Z 26003KT 8000 FEW008 SCT019 OVC038 08/06 Q1020
18:50
M
8 °C 8 km 2.000 ft 250° 250° 4 kt METAR EDLW 291750Z 25004KT 8000 SCT008 BKN020 OVC038 08/07 Q1020
17:50
I
8 °C 6 km 600 ft 260° 260° 4 kt METAR EDLW 291650Z 26004KT 230V310 6000 BKN006 OVC011 08/07 Q1019
17:20
I
8 °C 6 km 600 ft 270° 270° 4 kt METAR EDLW 291620Z 27004KT 240V320 6000 BKN006 OVC009 08/07 Q1019
16:50
I
8 °C 7 km 700 ft 260° 260° 3 kt METAR EDLW 291550Z 26003KT 230V330 7000 OVC007 08/07 Q1019
16:20
I
8 °C 7 km 800 ft 270° 270° 3 kt METAR EDLW 291520Z 27003KT 220V320 7000 OVC008 08/07 Q1019
15:50
I
8 °C 7 km 800 ft 260° 260° 4 kt METAR EDLW 291450Z 26004KT 230V310 7000 OVC008 08/07 Q1019
15:20
I
8 °C 8 km 800 ft 280° 280° 3 kt METAR EDLW 291420Z 28003KT 240V350 8000 OVC008 08/07 Q1019
14:50
I
8 °C 8 km 900 ft 260° 260° 4 kt METAR EDLW 291350Z 26004KT 240V330 8000 OVC009 08/07 Q1019
14:20
I
9 °C 8 km 900 ft 250° 250° 4 kt METAR EDLW 291320Z 25004KT 220V290 8000 OVC009 09/07 Q1018
13:50
I
8 °C 7 km 900 ft 250° 250° 4 kt METAR EDLW 291250Z 25004KT 230V290 7000 FEW007 OVC009 08/07 Q1018
13:20
I
8 °C 8 km 900 ft 260° 260° 3 kt METAR EDLW 291220Z 26003KT 240V310 8000 OVC009 08/07 Q1018
12:50
I
8 °C 9 km 900 ft Var Var 2 kt METAR EDLW 291150Z VRB02KT 9000 OVC009 08/06 Q1018
12:20
M
8 °C 10 km+ 1.100 ft 250° 250° 4 kt METAR EDLW 291120Z 25004KT 220V290 9999 OVC011 08/07 Q1018
11:50
I
8 °C 10 km+ 800 ft Var 000° 0 kt METAR EDLW 291050Z 00000KT 9999 OVC008 08/07 Q1018
11:20
I
8 °C 9 km 800 ft Var 000° 0 kt METAR EDLW 291020Z 00000KT 9000 OVC008 08/06 Q1018
10:50
I
8 °C 9 km 800 ft Var 000° 0 kt METAR EDLW 290950Z 00000KT 9000 OVC008 08/07 Q1018

Wir und Dritte verfolgen dein Internetverhalten auf unserer Website mit Cookies. Wenn du fortfährst, gehen wir davon aus, dass du mit unserer Cookie-Richtlinie einverstanden bist.